Time;durP1;ratioP1;P1;durP2;ratioP2;P2;SDS_P1;SDS_P2;PMS_P1;PMS_P2;Temp;Humidity;BMP_temperature;BMP_pressure;BME280_temperature;BME280_humidity;BME280_pressure;Samples;Min_cycle;Max_cycle;Signal;HPM_P1;HPM_P2
2021/06/09 00:00:54;;;;;;;23.08;20.30;;;15.40;90.10;;;;;;4919789;29;20082;-77
2021/06/09 00:03:21;;;;;;;23.70;19.70;;;15.40;90.30;;;;;;4921873;29;20044;-77
2021/06/09 00:05:48;;;;;;;16.88;14.98;;;15.30;90.20;;;;;;4904379;29;20056;-79
2021/06/09 00:08:15;;;;;;;23.42;19.77;;;15.30;89.20;;;;;;4921189;29;20048;-77
2021/06/09 00:10:42;;;;;;;24.30;21.58;;;15.30;90.20;;;;;;4921083;29;20052;-77
2021/06/09 00:13:08;;;;;;;23.00;20.15;;;15.20;90.50;;;;;;4921050;29;20051;-77
2021/06/09 00:15:35;;;;;;;22.20;19.50;;;15.20;90.60;;;;;;4921240;29;20055;-77
2021/06/09 00:18:02;;;;;;;24.02;19.77;;;15.20;90.50;;;;;;4920742;29;20048;-77
2021/06/09 00:20:29;;;;;;;17.98;15.73;;;15.20;90.40;;;;;;4920504;29;20449;-77
2021/06/09 00:22:55;;;;;;;21.55;19.25;;;15.10;89.70;;;;;;4920234;29;20052;-77
2021/06/09 00:25:23;;;;;;;23.58;21.17;;;15.10;90.30;;;;;;4920530;29;20056;-76
2021/06/09 00:27:53;;;;;;;24.88;22.27;;;15.10;90.60;;;;;;4920366;29;20354;-76
2021/06/09 00:30:31;;;;;;;23.52;20.95;;;15.10;90.90;;;;;;4920737;29;20044;-76
2021/06/09 00:33:00;;;;;;;18.23;16.33;;;15.10;90.70;;;;;;4920018;29;20051;-77
2021/06/09 00:35:29;;;;;;;22.42;18.73;;;15.10;90.10;;;;;;4920440;29;20045;-78
2021/06/09 00:37:56;;;;;;;23.15;20.58;;;15.10;90.10;;;;;;4920297;29;20040;-77
2021/06/09 00:40:23;;;;;;;26.35;23.17;;;15.00;90.40;;;;;;4920463;29;20050;-77
2021/06/09 00:43:15;;;;;;;23.00;18.65;;;15.00;90.50;;;;;;4919985;29;20056;-77
2021/06/09 00:46:06;;;;;;;24.13;21.58;;;15.00;90.90;;;;;;4920432;29;20432;-77
2021/06/09 00:48:36;;;;;;;27.70;24.80;;;15.00;90.70;;;;;;4880820;29;20060;-77
2021/06/09 00:51:16;;;;;;;26.50;23.60;;;14.90;91.30;;;;;;4880266;29;20060;-77
2021/06/09 00:53:53;;;;;;;25.48;22.77;;;14.80;91.50;;;;;;4880612;29;20154;-77
2021/06/09 00:56:21;;;;;;;23.67;21.17;;;14.90;91.50;;;;;;4880071;29;20173;-77
2021/06/09 00:58:49;;;;;;;24.45;21.02;;;14.90;91.40;;;;;;4880150;29;20049;-77
2021/06/09 01:01:19;;;;;;;24.85;22.23;;;14.90;91.50;;;;;;4879491;29;20049;-77
2021/06/09 01:03:46;;;;;;;23.30;20.83;;;14.80;91.40;;;;;;4880812;29;20045;-77
2021/06/09 01:06:14;;;;;;;25.98;23.20;;;14.80;91.40;;;;;;4879962;29;20351;-76
2021/06/09 01:09:00;;;;;;;23.38;19.65;;;14.80;91.80;;;;;;4867450;29;20052;-77
2021/06/09 01:11:30;;;;;;;26.45;23.13;;;14.70;91.60;;;;;;4880128;29;20052;-78
2021/06/09 01:14:16;;;;;;;24.17;21.48;;;14.70;91.70;;;;;;4867146;29;20129;-78
2021/06/09 01:16:43;;;;;;;22.73;20.42;;;14.70;91.70;;;;;;4880283;29;20155;-78
2021/06/09 01:19:09;;;;;;;22.17;19.77;;;14.70;91.30;;;;;;4880377;29;20064;-78
2021/06/09 01:21:35;;;;;;;26.30;22.23;;;14.70;91.40;;;;;;4879951;29;20045;-78
2021/06/09 01:24:03;;;;;;;22.33;19.77;;;14.70;91.50;;;;;;4879226;29;20052;-78
2021/06/09 01:26:31;;;;;;;25.23;21.92;;;14.60;91.30;;;;;;4914069;29;20048;-79
2021/06/09 01:28:59;;;;;;;20.98;18.63;;;14.60;91.70;;;;;;4919538;29;20315;-78
2021/06/09 01:31:28;;;;;;;27.42;22.05;;;14.60;91.60;;;;;;4919451;29;20048;-79
2021/06/09 01:34:05;;;;;;;26.33;23.55;;;14.80;91.70;;;;;;4918984;29;20067;-79
2021/06/09 01:36:34;;;;;;;23.52;20.23;;;14.60;91.80;;;;;;4918952;29;20052;-79
2021/06/09 01:39:14;;;;;;;22.52;16.75;;;14.70;91.40;;;;;;4918939;29;20055;-78
2021/06/09 01:41:50;;;;;;;24.35;21.75;;;14.60;90.90;;;;;;4919103;29;20055;-78
2021/06/09 01:44:40;;;;;;;27.42;24.35;;;14.60;91.50;;;;;;4905098;29;20431;-78
2021/06/09 01:47:07;;;;;;;31.20;26.05;;;14.50;91.90;;;;;;4902199;29;20056;-78
2021/06/09 01:49:34;;;;;;;20.88;18.10;;;14.50;92.20;;;;;;4919102;29;20059;-78
2021/06/09 01:52:00;;;;;;;24.08;21.58;;;14.50;91.70;;;;;;4919043;29;20047;-78
2021/06/09 01:54:26;;;;;;;27.20;24.60;;;14.50;91.90;;;;;;4918643;29;20048;-78
2021/06/09 01:56:53;;;;;;;28.08;24.83;;;14.50;92.00;;;;;;4918954;29;20048;-78
2021/06/09 01:59:21;;;;;;;25.55;22.38;;;14.50;92.50;;;;;;4918860;29;20044;-78
2021/06/09 02:01:49;;;;;;;25.58;21.92;;;14.50;92.50;;;;;;4932359;29;20726;-79
2021/06/09 02:04:16;;;;;;;25.10;22.15;;;14.50;92.30;;;;;;4920725;29;20048;-78
2021/06/09 02:06:51;;;;;;;24.92;22.33;;;14.50;92.10;;;;;;4938271;29;20055;-78
2021/06/09 02:09:39;;;;;;;24.45;20.63;;;14.40;92.40;;;;;;4937911;29;20063;-78
2021/06/09 02:12:07;;;;;;;27.75;24.38;;;14.40;92.30;;;;;;4937303;29;20051;-79
2021/06/09 02:14:36;;;;;;;24.17;21.50;;;14.40;92.70;;;;;;4937247;29;20050;-78
2021/06/09 02:17:04;;;;;;;25.80;22.10;;;14.40;92.50;;;;;;4937496;29;20052;-78
2021/06/09 02:19:32;;;;;;;28.25;24.88;;;14.40;92.60;;;;;;4941334;29;20406;-78
2021/06/09 02:21:59;;;;;;;24.65;21.92;;;14.50;92.70;;;;;;4938010;28;20333;-78
2021/06/09 02:24:28;;;;;;;28.38;25.35;;;14.40;92.70;;;;;;4937124;29;20363;-78
2021/06/09 02:26:56;;;;;;;20.35;17.85;;;14.40;92.70;;;;;;4937382;29;20063;-78
2021/06/09 02:29:22;;;;;;;22.25;17.98;;;14.40;92.20;;;;;;4937334;29;20051;-78
2021/06/09 02:31:51;;;;;;;21.85;19.63;;;14.40;92.10;;;;;;4939071;29;20043;-78
2021/06/09 02:34:25;;;;;;;23.05;20.65;;;14.40;92.20;;;;;;4938401;29;20051;-78
2021/06/09 02:36:54;;;;;;;23.45;20.90;;;14.30;92.30;;;;;;4938325;29;20040;-78
2021/06/09 02:39:24;;;;;;;24.25;21.30;;;14.30;92.60;;;;;;4937108;29;20334;-78
2021/06/09 02:41:51;;;;;;;20.63;17.90;;;14.40;92.60;;;;;;4936808;29;20056;-79
2021/06/09 02:44:18;;;;;;;22.08;18.10;;;14.60;92.40;;;;;;4937342;29;20418;-78
2021/06/09 02:47:02;;;;;;;22.20;19.63;;;14.30;92.10;;;;;;4937325;29;20040;-78
2021/06/09 02:49:50;;;;;;;20.27;17.70;;;14.30;92.50;;;;;;4922963;29;20067;-79
2021/06/09 02:52:26;;;;;;;12.13;10.82;;;14.30;92.00;;;;;;4936848;29;20056;-79
2021/06/09 02:55:01;;;;;;;17.80;15.98;;;14.20;91.00;;;;;;4937106;29;20047;-79
2021/06/09 02:58:05;;;;;;;21.95;19.58;;;14.30;91.10;;;;;;4936836;29;20050;-79
2021/06/09 03:00:48;;;;;;;19.13;17.10;;;14.30;91.90;;;;;;4936842;29;20039;-79
2021/06/09 03:03:25;;;;;;;20.85;18.35;;;14.20;91.60;;;;;;4936680;29;20058;-79
2021/06/09 03:05:59;;;;;;;23.58;19.70;;;14.20;92.00;;;;;;4936868;29;20437;-79
2021/06/09 03:08:41;;;;;;;13.20;11.70;;;14.20;92.00;;;;;;4937179;29;20361;-78
2021/06/09 03:11:48;;;;;;;13.98;12.32;;;14.20;91.20;;;;;;4936347;29;20056;-78
2021/06/09 03:17:17;;;;;;;16.27;13.60;;;14.10;90.70;;;;;;4841170;29;20658;-78
2021/06/09 03:20:19;;;;;;;18.95;16.60;;;14.10;90.70;;;;;;4841272;29;20054;-78
2021/06/09 03:23:15;;;;;;;19.55;17.08;;;14.20;92.00;;;;;;4841021;29;20061;-78
2021/06/09 03:26:28;;;;;;;20.25;17.60;;;14.20;91.70;;;;;;4828264;29;20097;-78
2021/06/09 03:29:22;;;;;;;15.85;12.85;;;14.10;92.10;;;;;;4841335;29;20591;-78
2021/06/09 03:31:52;;;;;;;;;;;14.10;91.30;;;;;;4845277;29;20046;-77
2021/06/09 03:34:26;;;;;;;20.45;17.50;;;14.00;92.50;;;;;;4844129;29;19920;-76
2021/06/09 03:36:56;;;;;;;23.73;21.23;;;14.00;91.60;;;;;;4844706;29;20054;-77
2021/06/09 03:39:23;;;;;;;20.90;18.52;;;14.20;92.40;;;;;;4844747;29;20050;-77
2021/06/09 03:41:57;;;;;;;20.17;18.10;;;14.20;92.30;;;;;;4844540;29;20061;-77
2021/06/09 03:44:33;;;;;;;21.67;19.38;;;14.20;92.50;;;;;;4844121;29;20100;-77
2021/06/09 03:47:04;;;;;;;21.30;18.92;;;14.20;92.50;;;;;;4844457;29;20431;-78
2021/06/09 03:49:31;;;;;;;23.65;20.73;;;14.40;92.60;;;;;;4844677;29;20523;-78
2021/06/09 03:51:59;;;;;;;21.00;18.45;;;14.20;92.70;;;;;;4909852;29;20052;-77
2021/06/09 03:54:33;;;;;;;22.42;17.70;;;14.30;92.70;;;;;;4933078;29;20056;-78
2021/06/09 03:57:24;;;;;;;25.05;21.42;;;14.30;92.50;;;;;;4926082;29;20052;-77
2021/06/09 03:59:53;;;;;;;23.23;20.55;;;14.30;92.50;;;;;;4939952;29;20058;-78
2021/06/09 04:02:22;;;;;;;22.63;18.98;;;14.40;92.90;;;;;;4940037;29;20062;-78
2021/06/09 04:04:53;;;;;;;21.60;18.38;;;14.40;92.60;;;;;;4939971;29;20334;-78
2021/06/09 04:07:22;;;;;;;18.02;16.15;;;14.40;92.60;;;;;;4940129;29;20329;-78
2021/06/09 04:09:49;;;;;;;17.92;15.65;;;14.40;92.30;;;;;;4939904;29;20333;-77
2021/06/09 04:12:18;;;;;;;22.55;19.50;;;14.60;91.90;;;;;;4923829;29;20070;-77
2021/06/09 04:14:48;;;;;;;22.58;19.70;;;14.70;91.80;;;;;;4940049;29;20039;-77
2021/06/09 04:17:22;;;;;;;19.50;16.90;;;14.60;92.00;;;;;;4939793;29;20051;-77
2021/06/09 04:19:50;;;;;;;20.00;17.90;;;14.70;92.00;;;;;;4940308;29;20047;-78
2021/06/09 04:22:17;;;;;;;20.65;18.35;;;14.80;91.70;;;;;;4939945;29;20055;-78
2021/06/09 04:24:43;;;;;;;18.45;16.55;;;14.80;91.80;;;;;;4940127;29;20054;-78
2021/06/09 04:27:25;;;;;;;21.85;18.58;;;14.80;91.70;;;;;;4939858;29;20047;-77
2021/06/09 04:29:53;;;;;;;19.48;17.50;;;14.90;91.60;;;;;;4939406;29;20060;-79
2021/06/09 04:32:20;;;;;;;26.10;21.13;;;15.00;91.60;;;;;;4939772;29;20054;-78
2021/06/09 04:34:51;;;;;;;23.10;20.77;;;15.10;91.80;;;;;;4939618;29;20050;-78
2021/06/09 04:37:19;;;;;;;21.00;18.55;;;15.00;91.80;;;;;;4939789;29;20055;-78
2021/06/09 04:39:47;;;;;;;24.63;20.13;;;15.20;91.60;;;;;;4939709;29;20342;-78
2021/06/09 04:42:16;;;;;;;19.77;14.80;;;15.20;91.50;;;;;;4940033;29;20055;-78
2021/06/09 04:44:44;;;;;;;22.48;20.17;;;15.20;91.30;;;;;;4939864;29;20370;-78
2021/06/09 04:47:11;;;;;;;21.02;17.52;;;15.40;91.50;;;;;;4939833;29;20044;-77
2021/06/09 04:49:45;;;;;;;16.15;14.35;;;15.40;91.50;;;;;;4939390;29;20059;-78
2021/06/09 04:52:15;;;;;;;17.52;15.73;;;15.50;90.90;;;;;;4939459;29;20060;-78
2021/06/09 04:54:42;;;;;;;20.08;17.98;;;15.60;91.20;;;;;;4939830;29;20039;-78
2021/06/09 04:57:08;;;;;;;19.42;17.10;;;16.00;91.40;;;;;;4939079;29;20067;-77
2021/06/09 04:59:34;;;;;;;17.63;15.80;;;15.80;91.40;;;;;;4939023;29;20052;-78
2021/06/09 05:02:00;;;;;;;18.80;16.90;;;15.90;91.40;;;;;;4938949;29;20051;-78
2021/06/09 05:04:29;;;;;;;21.42;19.23;;;16.00;91.40;;;;;;4938692;29;20445;-78
2021/06/09 05:06:56;;;;;;;20.85;16.92;;;16.10;91.60;;;;;;4939399;29;20039;-78
2021/06/09 05:09:22;;;;;;;16.48;14.88;;;16.40;91.70;;;;;;4922231;29;20055;-78
2021/06/09 05:12:32;;;;;;;11.85;10.65;;;16.30;91.30;;;;;;4922418;29;20044;-78
2021/06/09 05:15:06;;;;;;;12.60;10.55;;;16.40;89.00;;;;;;4939052;29;20043;-78
2021/06/09 05:17:42;;;;;;;11.68;10.45;;;16.50;89.80;;;;;;4938975;29;20052;-78
2021/06/09 05:20:10;;;;;;;13.02;11.63;;;16.70;90.00;;;;;;4938972;29;20052;-78
2021/06/09 05:23:06;;;;;;;17.33;13.95;;;16.70;89.60;;;;;;4938589;29;20346;-79
2021/06/09 05:25:54;;;;;;;17.67;11.80;;;16.80;90.30;;;;;;4938433;29;20047;-79
2021/06/09 05:28:27;;;;;;;12.50;10.18;;;16.90;89.70;;;;;;4937861;29;20062;-79
2021/06/09 05:30:55;;;;;;;13.23;10.65;;;17.20;89.10;;;;;;4938648;29;20433;-79
2021/06/09 05:33:23;;;;;;;17.23;10.00;;;17.20;88.40;;;;;;4938739;29;20043;-80
2021/06/09 05:35:52;;;;;;;12.43;9.65;;;17.40;88.00;;;;;;4937778;29;20044;-77
2021/06/09 05:38:21;;;;;;;13.07;9.70;;;17.50;87.80;;;;;;4938243;29;20370;-77
2021/06/09 05:40:48;;;;;;;12.30;8.68;;;17.70;87.10;;;;;;4938195;29;20043;-78
2021/06/09 05:43:25;;;;;;;15.20;8.75;;;17.70;87.10;;;;;;4938368;29;20494;-79
2021/06/09 05:45:53;;;;;;;12.82;8.85;;;17.80;85.40;;;;;;4937588;29;20071;-79
2021/06/09 05:48:20;;;;;;;16.50;9.68;;;18.00;85.50;;;;;;4937345;29;20051;-78
2021/06/09 05:50:54;;;;;;;15.98;7.93;;;18.10;84.90;;;;;;4937848;29;20043;-78
2021/06/09 05:53:23;;;;;;;14.07;7.97;;;18.20;83.90;;;;;;4937308;29;20424;-78
2021/06/09 05:55:50;;;;;;;9.32;7.00;;;18.30;84.20;;;;;;4937757;29;20074;-78
2021/06/09 05:58:19;;;;;;;10.98;7.53;;;18.40;83.40;;;;;;4937803;29;20444;-78
2021/06/09 06:00:52;;;;;;;11.30;6.95;;;18.50;82.30;;;;;;4936985;29;20056;-78
2021/06/09 06:03:21;;;;;;;10.02;6.28;;;18.70;81.70;;;;;;4937055;29;20047;-78
2021/06/09 06:05:54;;;;;;;10.40;5.60;;;18.80;81.50;;;;;;4937171;29;20440;-77
2021/06/09 06:08:20;;;;;;;10.40;5.20;;;19.00;81.10;;;;;;4937584;29;20070;-78
2021/06/09 06:10:46;;;;;;;9.38;5.05;;;19.10;80.20;;;;;;4936983;29;20360;-79
2021/06/09 06:13:14;;;;;;;13.50;4.70;;;19.40;80.40;;;;;;4937094;29;20426;-78
2021/06/09 06:15:41;;;;;;;23.30;5.57;;;;;;;;;;4937785;29;20330;-79
2021/06/09 06:18:38;;;;;;;12.57;5.00;;;19.40;75.50;;;;;;4923760;29;20056;-78
2021/06/09 06:21:13;;;;;;;15.43;4.00;;;19.60;75.80;;;;;;4937649;29;20058;-79
2021/06/09 06:23:40;;;;;;;11.65;4.40;;;19.60;74.70;;;;;;4937171;29;20050;-79
2021/06/09 06:26:08;;;;;;;12.73;3.42;;;19.90;72.30;;;;;;4937086;29;20051;-79
2021/06/09 06:28:34;;;;;;;9.25;3.33;;;19.90;73.40;;;;;;4920797;29;20047;-80
2021/06/09 06:31:04;;;;;;;5.55;2.92;;;20.20;75.50;;;;;;4938073;29;20051;-79
2021/06/09 06:33:32;;;;;;;7.18;3.00;;;20.20;71.80;;;;;;4937130;29;20619;-80
2021/06/09 06:35:59;;;;;;;6.30;2.40;;;20.40;71.10;;;;;;4940281;29;20047;-80
2021/06/09 06:38:26;;;;;;;10.07;3.30;;;20.60;71.30;;;;;;4937379;29;20051;-81
2021/06/09 06:40:53;;;;;;;10.73;3.65;;;20.80;71.90;;;;;;4937106;29;20055;-81
2021/06/09 06:43:20;;;;;;;8.93;3.42;;;20.90;69.70;;;;;;4937328;29;20435;-79
2021/06/09 06:45:46;;;;;;;9.85;3.65;;;21.10;70.80;;;;;;4937336;29;20055;-79
2021/06/09 06:48:14;;;;;;;9.85;4.20;;;21.20;69.50;;;;;;4937483;29;20055;-79
2021/06/09 06:50:43;;;;;;;9.65;3.88;;;21.30;67.60;;;;;;4936733;29;20051;-80
2021/06/09 06:53:10;;;;;;;15.85;3.83;;;21.40;67.70;;;;;;4937025;29;20040;-80
2021/06/09 06:55:40;;;;;;;17.88;4.00;;;21.60;67.40;;;;;;4936820;29;20059;-80
2021/06/09 06:58:07;;;;;;;9.68;4.35;;;21.70;66.70;;;;;;4937030;29;20054;-80
2021/06/09 07:00:35;;;;;;;12.02;3.67;;;21.80;65.90;;;;;;4937021;29;20046;-81
2021/06/09 07:03:03;;;;;;;10.85;3.00;;;22.00;65.30;;;;;;4936387;29;20078;-82
2021/06/09 07:05:34;;;;;;;15.93;3.60;;;22.20;65.30;;;;;;4936749;29;20043;-82
2021/06/09 07:08:03;;;;;;;11.93;3.40;;;22.40;65.80;;;;;;4936750;29;20056;-81
2021/06/09 07:10:31;;;;;;;16.42;4.22;;;22.70;64.80;;;;;;4936394;29;20048;-82
2021/06/09 07:13:04;;;;;;;10.48;2.83;;;22.80;64.70;;;;;;4936479;29;20062;-82
2021/06/09 07:15:32;;;;;;;20.35;2.85;;;23.00;64.20;;;;;;4936338;29;20063;-82
2021/06/09 07:18:02;;;;;;;6.68;2.28;;;23.20;63.60;;;;;;4936299;29;20406;-81
2021/06/09 07:20:29;;;;;;;6.20;2.08;;;23.40;63.40;;;;;;4936290;29;20060;-82
2021/06/09 07:22:58;;;;;;;8.85;2.33;;;23.60;61.70;;;;;;4935717;29;20052;-82
2021/06/09 07:25:28;;;;;;;7.50;1.95;;;23.60;59.80;;;;;;4936058;29;20060;-82
2021/06/09 07:27:59;;;;;;;5.15;1.90;;;23.80;59.70;;;;;;4936162;29;20047;-82
2021/06/09 07:30:33;;;;;;;3.60;1.50;;;24.10;60.00;;;;;;4936748;29;20044;-82
2021/06/09 07:33:00;;;;;;;;;;;24.30;60.00;;;;;;4936019;29;20063;-82
2021/06/09 07:35:32;;;;;;;5.72;2.28;;;24.20;57.50;;;;;;4935551;29;19919;-81
2021/06/09 07:38:05;;;;;;;10.82;3.03;;;24.50;58.90;;;;;;4935899;29;20437;-81
2021/06/09 07:40:37;;;;;;;6.45;2.45;;;24.70;57.70;;;;;;4935726;29;20071;-82
2021/06/09 07:43:17;;;;;;;8.00;2.88;;;24.80;58.70;;;;;;4935253;29;20341;-82
2021/06/09 07:45:48;;;;;;;9.00;3.00;;;25.00;55.30;;;;;;4934703;29;20056;-83
2021/06/09 07:48:21;;;;;;;11.93;2.97;;;25.00;58.10;;;;;;4935765;29;20048;-82
2021/06/09 07:50:51;;;;;;;6.25;3.13;;;25.30;57.90;;;;;;4935574;29;20054;-82
2021/06/09 07:53:18;;;;;;;7.75;3.45;;;25.60;56.90;;;;;;4935701;29;20063;-82
2021/06/09 07:55:49;;;;;;;6.50;3.78;;;25.50;55.50;;;;;;4935759;29;20058;-83
2021/06/09 07:58:18;;;;;;;5.45;3.10;;;25.60;54.60;;;;;;4935422;29;20059;-82
2021/06/09 08:00:47;;;;;;;7.93;3.05;;;25.70;54.70;;;;;;4935380;29;20362;-82
2021/06/09 08:03:13;;;;;;;5.75;2.88;;;25.90;54.60;;;;;;4935578;29;20056;-83
2021/06/09 08:05:41;;;;;;;4.60;2.45;;;26.30;55.60;;;;;;4918628;29;20059;-82
2021/06/09 08:08:12;;;;;;;9.70;4.20;;;26.30;54.00;;;;;;4935972;29;20059;-82
2021/06/09 08:10:40;;;;;;;5.75;3.92;;;26.20;53.40;;;;;;4935936;29;20055;-82
2021/06/09 08:13:09;;;;;;;8.13;4.22;;;26.00;52.80;;;;;;4935750;29;20056;-82
2021/06/09 08:15:37;;;;;;;8.32;5.47;;;26.30;53.20;;;;;;4937628;29;20334;-83
2021/06/09 08:18:08;;;;;;;10.60;6.05;;;26.50;53.50;;;;;;4939870;29;20047;-81
2021/06/09 08:21:05;;;;;;;10.85;4.88;;;26.50;54.40;;;;;;4939924;29;20052;-81
2021/06/09 08:23:40;;;;;;;6.68;5.55;;;26.50;52.30;;;;;;4939510;29;20457;-87
2021/06/09 08:26:09;;;;;;;6.68;5.50;;;26.40;52.80;;;;;;4922995;29;20055;-88
2021/06/09 08:28:37;;;;;;;10.50;6.50;;;26.60;54.10;;;;;;4923117;29;20055;-88
2021/06/09 08:31:05;;;;;;;7.10;5.57;;;26.90;54.50;;;;;;4940181;29;20055;-88
2021/06/09 08:33:35;;;;;;;7.82;6.03;;;27.00;56.50;;;;;;4939289;29;20134;-88
2021/06/09 08:36:08;;;;;;;7.95;6.15;;;27.20;56.10;;;;;;4939322;29;20040;-82
2021/06/09 08:38:43;;;;;;;10.43;8.02;;;27.20;54.70;;;;;;4938591;29;20055;-83
2021/06/09 08:41:13;;;;;;;12.98;8.15;;;27.30;52.90;;;;;;4939559;29;20043;-85
2021/06/09 08:43:41;;;;;;;14.40;7.10;;;27.20;52.20;;;;;;4939050;29;20058;-85
2021/06/09 08:46:10;;;;;;;9.88;7.85;;;27.50;53.60;;;;;;4939211;29;20469;-84
2021/06/09 08:48:40;;;;;;;11.25;7.75;;;27.40;52.50;;;;;;4938692;29;20060;-84
2021/06/09 08:51:10;;;;;;;9.65;5.57;;;27.60;52.20;;;;;;4938917;29;20634;-84
2021/06/09 08:53:42;;;;;;;8.63;7.72;;;27.90;53.30;;;;;;4938838;29;20048;-84
2021/06/09 08:56:08;;;;;;;9.77;8.20;;;28.10;51.60;;;;;;4938738;29;20044;-84
2021/06/09 08:58:36;;;;;;;11.27;8.13;;;27.90;50.90;;;;;;4939191;29;20442;-85
2021/06/09 09:01:07;;;;;;;16.40;9.27;;;27.70;51.50;;;;;;4938685;29;20035;-83
2021/06/09 09:03:35;;;;;;;9.68;7.47;;;27.80;51.50;;;;;;4938734;29;20068;-78
2021/06/09 09:06:03;;;;;;;10.23;6.75;;;27.90;51.30;;;;;;4938300;29;20044;-76
2021/06/09 09:08:29;;;;;;;7.18;5.40;;;28.50;52.20;;;;;;4938581;29;20051;-76
2021/06/09 09:10:56;;;;;;;8.75;5.68;;;28.70;52.20;;;;;;4938695;29;20426;-74
2021/06/09 09:13:24;;;;;;;15.68;8.70;;;28.80;51.90;;;;;;4938566;29;20062;-76
2021/06/09 09:15:52;;;;;;;8.18;6.72;;;28.70;49.40;;;;;;4938959;29;20055;-82
2021/06/09 09:18:19;;;;;;;8.45;7.13;;;28.30;49.90;;;;;;4938596;29;20047;-80
2021/06/09 09:20:48;;;;;;;9.18;5.40;;;28.50;50.30;;;;;;4939209;29;20051;-85
2021/06/09 09:23:25;;;;;;;9.35;8.30;;;28.70;52.00;;;;;;4938537;29;20047;-82
2021/06/09 09:25:54;;;;;;;9.38;8.38;;;28.50;49.70;;;;;;4938977;29;20055;-81
2021/06/09 09:28:30;;;;;;;8.30;5.13;;;28.90;48.70;;;;;;4938134;29;20044;-80
2021/06/09 09:31:11;;;;;;;8.57;7.20;;;28.90;49.90;;;;;;4938591;29;20059;-81
2021/06/09 09:33:38;;;;;;;7.65;6.30;;;28.30;48.70;;;;;;4938438;29;20052;-85
2021/06/09 09:36:27;;;;;;;11.73;8.02;;;28.30;50.50;;;;;;4934549;29;20047;-84
2021/06/09 09:38:59;;;;;;;6.60;4.60;;;28.70;51.40;;;;;;4911952;29;20436;-82
2021/06/09 09:41:43;;;;;;;10.38;7.78;;;28.70;48.80;;;;;;4926835;29;20064;-79
2021/06/09 09:44:09;;;;;;;10.00;7.93;;;29.00;48.40;;;;;;4928602;29;20039;-80
2021/06/09 09:46:50;;;;;;;10.60;7.20;;;29.40;49.40;;;;;;4928200;29;20044;-84
2021/06/09 09:49:18;;;;;;;7.75;6.75;;;29.00;48.60;;;;;;4929305;29;20048;-81
2021/06/09 09:51:50;;;;;;;10.93;6.93;;;29.00;50.00;;;;;;4928668;29;20473;-82
2021/06/09 09:54:32;;;;;;;11.43;8.65;;;29.00;50.70;;;;;;4928170;29;20044;-82
2021/06/09 09:57:02;;;;;;;11.27;6.97;;;28.80;48.70;;;;;;4920957;29;20052;-85
2021/06/09 09:59:30;;;;;;;9.10;8.15;;;28.50;51.40;;;;;;4918929;29;20043;-81
2021/06/09 10:01:58;;;;;;;10.57;8.02;;;28.80;49.50;;;;;;4933768;29;20040;-78
2021/06/09 10:04:34;;;;;;;13.00;9.32;;;28.70;47.80;;;;;;4937976;29;20043;-80
2021/06/09 10:07:02;;;;;;;10.55;8.70;;;28.50;48.80;;;;;;4937430;29;20059;-82
2021/06/09 10:09:39;;;;;;;11.00;8.05;;;28.40;49.80;;;;;;4937320;29;20059;-80
2021/06/09 10:12:07;;;;;;;8.90;8.07;;;28.50;49.50;;;;;;4937292;29;20342;-79
2021/06/09 10:14:38;;;;;;;11.57;7.85;;;29.00;50.90;;;;;;4937577;29;20433;-79
2021/06/09 10:17:06;;;;;;;7.13;5.85;;;29.50;50.10;;;;;;4937957;29;20337;-82
2021/06/09 10:19:58;;;;;;;13.07;8.65;;;30.10;48.60;;;;;;4938162;29;20350;-80
2021/06/09 10:22:33;;;;;;;9.48;8.05;;;30.40;46.20;;;;;;4937557;29;20055;-76
2021/06/09 10:25:06;;;;;;;9.82;6.97;;;30.80;46.60;;;;;;4937707;29;20047;-76
2021/06/09 10:27:38;;;;;;;9.95;5.72;;;31.10;46.30;;;;;;4920968;29;20056;-76
2021/06/09 10:30:24;;;;;;;10.88;7.60;;;31.70;47.30;;;;;;4937239;29;20048;-76
2021/06/09 10:32:58;;;;;;;6.38;5.55;;;31.20;44.50;;;;;;4937114;29;20055;-76
2021/06/09 10:35:32;;;;;;;8.55;7.13;;;31.10;45.10;;;;;;4936841;29;20362;-76
2021/06/09 10:37:59;;;;;;;7.30;6.05;;;31.10;45.00;;;;;;4937357;29;20334;-77
2021/06/09 10:40:28;;;;;;;11.48;7.35;;;31.00;44.80;;;;;;4937177;29;20055;-77
2021/06/09 10:42:57;;;;;;;15.27;8.45;;;30.70;45.10;;;;;;4936917;29;20342;-79
2021/06/09 10:45:25;;;;;;;10.35;6.68;;;30.30;44.80;;;;;;4936907;29;20334;-79
2021/06/09 10:47:55;;;;;;;9.10;7.35;;;30.20;46.00;;;;;;4936790;29;20069;-78
2021/06/09 10:50:22;;;;;;;8.15;7.35;;;30.30;45.60;;;;;;4936864;29;20469;-79
2021/06/09 10:52:49;;;;;;;8.80;7.63;;;30.00;44.70;;;;;;4936882;29;20047;-77
2021/06/09 10:55:16;;;;;;;12.95;8.07;;;29.70;45.10;;;;;;4937268;29;20531;-78
2021/06/09 10:57:43;;;;;;;9.98;7.45;;;29.70;45.50;;;;;;4936946;29;20060;-78
2021/06/09 11:00:12;;;;;;;13.68;8.07;;;30.10;45.90;;;;;;4936666;29;20052;-77
2021/06/09 11:02:41;;;;;;;13.77;8.48;;;30.10;45.50;;;;;;4937024;29;20409;-78
2021/06/09 11:05:10;;;;;;;12.00;9.25;;;30.10;45.40;;;;;;4936389;29;20485;-78
2021/06/09 11:07:47;;;;;;;9.63;8.38;;;29.90;45.20;;;;;;4936743;29;20052;-80
2021/06/09 11:10:31;;;;;;;14.20;8.52;;;30.40;45.20;;;;;;4936758;29;20441;-79
2021/06/09 11:12:58;;;;;;;8.73;7.80;;;30.50;43.70;;;;;;4936074;29;20055;-78
2021/06/09 11:15:34;;;;;;;9.23;7.30;;;30.90;44.60;;;;;;4936719;29;20047;-80
2021/06/09 11:18:12;;;;;;;9.60;8.60;;;30.40;44.80;;;;;;4936834;29;20052;-80
2021/06/09 11:20:41;;;;;;;10.65;6.95;;;30.20;44.80;;;;;;4937438;29;20039;-77
2021/06/09 11:23:12;;;;;;;8.68;7.78;;;30.20;44.20;;;;;;4936735;29;20066;-79
2021/06/09 11:25:43;;;;;;;8.88;7.88;;;30.60;44.50;;;;;;4937422;29;20047;-79
2021/06/09 11:28:17;;;;;;;13.10;7.63;;;31.10;44.30;;;;;;4937122;29;20067;-75
2021/06/09 11:30:51;;;;;;;36.13;9.82;;;31.70;44.00;;;;;;4937307;29;20062;-79
2021/06/09 11:33:39;;;;;;;8.73;7.20;;;32.00;43.10;;;;;;4936733;29;20434;-77
2021/06/09 11:36:28;;;;;;;13.75;8.68;;;31.80;42.50;;;;;;4935528;29;20048;-76
2021/06/09 11:39:04;;;;;;;11.40;8.32;;;31.60;42.20;;;;;;4936771;29;20043;-77
2021/06/09 11:41:39;;;;;;;8.18;5.43;;;31.70;40.90;;;;;;4935775;29;20051;-77
2021/06/09 11:44:06;;;;;;;10.18;9.02;;;31.90;43.70;;;;;;4936095;29;20612;-78
2021/06/09 11:46:38;;;;;;;10.43;8.32;;;32.00;41.20;;;;;;4936433;29;20047;-77
2021/06/09 11:49:15;;;;;;;9.63;6.63;;;31.70;41.30;;;;;;4936506;29;20365;-78
2021/06/09 11:52:02;;;;;;;8.00;6.90;;;31.80;41.80;;;;;;4939545;29;20052;-78
2021/06/09 11:54:32;;;;;;;6.78;5.20;;;32.30;42.60;;;;;;4922840;29;20365;-78
2021/06/09 11:57:13;;;;;;;10.55;7.53;;;33.00;42.30;;;;;;4940070;29;20044;-75
2021/06/09 11:59:41;;;;;;;11.93;7.93;;;33.40;40.00;;;;;;4939853;29;20062;-77
2021/06/09 12:02:25;;;;;;;9.93;8.93;;;32.60;39.50;;;;;;4939185;29;20307;-76
2021/06/09 12:04:53;;;;;;;10.10;9.00;;;33.10;40.40;;;;;;4939543;29;20062;-76
2021/06/09 12:07:21;;;;;;;12.02;8.85;;;33.20;40.50;;;;;;4939859;29;20043;-77
2021/06/09 12:09:48;;;;;;;12.43;7.10;;;32.90;39.10;;;;;;4939574;29;20066;-77
2021/06/09 12:12:23;;;;;;;7.97;6.72;;;32.70;40.40;;;;;;4939138;29;20591;-77
2021/06/09 12:14:58;;;;;;;11.13;7.85;;;32.70;40.60;;;;;;4939213;29;20062;-77
2021/06/09 12:17:26;;;;;;;12.45;7.80;;;33.00;40.00;;;;;;4939993;29;20059;-75
2021/06/09 12:20:13;;;;;;;10.15;8.52;;;32.80;39.00;;;;;;4940258;29;20430;-75
2021/06/09 12:22:49;;;;;;;12.93;8.20;;;33.20;38.50;;;;;;4940033;29;20064;-75
2021/06/09 12:25:19;;;;;;;8.10;6.35;;;33.40;37.80;;;;;;4939561;29;20055;-76
2021/06/09 12:28:06;;;;;;;11.60;5.93;;;33.90;38.10;;;;;;4939958;29;20062;-76
2021/06/09 12:30:53;;;;;;;9.40;8.45;;;34.80;40.60;;;;;;4939558;29;20052;-77
2021/06/09 12:33:19;;;;;;;9.88;6.28;;;34.10;36.70;;;;;;4939321;29;20055;-74
2021/06/09 12:35:46;;;;;;;9.77;7.78;;;32.90;39.00;;;;;;4939570;29;20040;-76
2021/06/09 12:38:12;;;;;;;8.45;6.90;;;32.80;39.10;;;;;;4939257;29;20048;-76
2021/06/09 12:40:48;;;;;;;10.38;5.88;;;32.60;39.70;;;;;;4939094;29;20058;-76
2021/06/09 12:43:14;;;;;;;9.45;7.85;;;32.60;38.40;;;;;;4921879;29;20056;-74
2021/06/09 12:45:47;;;;;;;12.50;8.65;;;32.50;35.20;;;;;;4938707;29;20059;-74
2021/06/09 12:48:20;;;;;;;9.32;7.18;;;32.00;38.30;;;;;;4939386;29;20043;-76
2021/06/09 12:50:50;;;;;;;9.43;6.90;;;32.70;38.50;;;;;;4938597;29;20048;-76
2021/06/09 12:53:18;;;;;;;10.68;5.65;;;32.10;38.40;;;;;;4938986;29;20052;-74
2021/06/09 12:55:51;;;;;;;6.97;5.55;;;32.90;39.70;;;;;;4939132;29;20043;-75
2021/06/09 12:58:21;;;;;;;12.02;7.70;;;33.70;40.90;;;;;;4938860;29;20441;-75
2021/06/09 13:01:11;;;;;;;9.32;7.22;;;34.40;38.60;;;;;;4937882;29;20043;-74
2021/06/09 13:03:43;;;;;;;8.88;7.18;;;34.70;36.50;;;;;;4938330;29;20054;-77